sensor_id;sensor_type;location;lat;lon;timestamp;pressure;altitude;pressure_sealevel;temperature;humidity
498;BME280;39559;48.630;9.162;2022-07-10T00:01:48;98109.72;;;16.14;100.00
498;BME280;39559;48.630;9.162;2022-07-10T00:04:14;98108.78;;;16.15;100.00
498;BME280;39559;48.630;9.162;2022-07-10T00:06:39;98113.09;;;16.16;100.00
498;BME280;39559;48.630;9.162;2022-07-10T00:11:09;98110.19;;;16.20;100.00
498;BME280;39559;48.630;9.162;2022-07-10T00:13:35;98105.56;;;16.25;100.00
498;BME280;39559;48.630;9.162;2022-07-10T00:16:01;98101.91;;;16.28;100.00
498;BME280;39559;48.630;9.162;2022-07-10T00:18:28;98107.94;;;16.30;100.00
498;BME280;39559;48.630;9.162;2022-07-10T00:20:56;98101.81;;;16.29;100.00
498;BME280;39559;48.630;9.162;2022-07-10T00:23:22;98107.66;;;16.35;100.00
498;BME280;39559;48.630;9.162;2022-07-10T00:25:48;98106.81;;;16.34;100.00
498;BME280;39559;48.630;9.162;2022-07-10T00:28:16;98102.41;;;16.35;100.00
498;BME280;39559;48.630;9.162;2022-07-10T00:30:42;98098.97;;;16.34;100.00
498;BME280;39559;48.630;9.162;2022-07-10T00:35:05;98098.19;;;16.32;100.00
498;BME280;39559;48.630;9.162;2022-07-10T00:37:30;98103.59;;;16.29;100.00
498;BME280;39559;48.630;9.162;2022-07-10T00:39:56;98098.72;;;16.23;100.00
498;BME280;39559;48.630;9.162;2022-07-10T00:42:22;98095.81;;;16.27;100.00
498;BME280;39559;48.630;9.162;2022-07-10T00:44:47;98099.28;;;16.28;100.00
498;BME280;39559;48.630;9.162;2022-07-10T00:47:13;98097.53;;;16.28;100.00
498;BME280;39559;48.630;9.162;2022-07-10T00:49:42;98095.31;;;16.21;100.00
498;BME280;39559;48.630;9.162;2022-07-10T00:52:11;98094.31;;;16.23;100.00
498;BME280;39559;48.630;9.162;2022-07-10T00:54:38;98102.09;;;16.25;100.00
498;BME280;39559;48.630;9.162;2022-07-10T00:58:59;98096.84;;;16.09;100.00
498;BME280;39559;48.630;9.162;2022-07-10T01:01:26;98087.56;;;16.03;100.00
498;BME280;39559;48.630;9.162;2022-07-10T01:03:52;98086.53;;;16.06;100.00
498;BME280;39559;48.630;9.162;2022-07-10T01:06:17;98078.00;;;16.02;100.00
498;BME280;39559;48.630;9.162;2022-07-10T01:08:46;98079.09;;;15.98;100.00
498;BME280;39559;48.630;9.162;2022-07-10T01:11:13;98074.22;;;15.92;100.00
498;BME280;39559;48.630;9.162;2022-07-10T01:13:39;98076.56;;;15.81;100.00
498;BME280;39559;48.630;9.162;2022-07-10T01:16:06;98073.81;;;15.66;100.00
498;BME280;39559;48.630;9.162;2022-07-10T01:18:33;98067.53;;;15.53;100.00
498;BME280;39559;48.630;9.162;2022-07-10T01:22:55;98065.41;;;15.44;100.00
498;BME280;39559;48.630;9.162;2022-07-10T01:25:20;98065.56;;;15.41;100.00
498;BME280;39559;48.630;9.162;2022-07-10T01:27:46;98074.38;;;15.40;100.00
498;BME280;39559;48.630;9.162;2022-07-10T01:30:14;98071.13;;;15.34;100.00
498;BME280;39559;48.630;9.162;2022-07-10T01:32:40;98072.16;;;15.32;100.00
498;BME280;39559;48.630;9.162;2022-07-10T01:35:06;98073.31;;;15.26;100.00
498;BME280;39559;48.630;9.162;2022-07-10T01:37:32;98063.22;;;15.19;100.00
498;BME280;39559;48.630;9.162;2022-07-10T01:39:57;98074.19;;;15.09;100.00
498;BME280;39559;48.630;9.162;2022-07-10T01:42:23;98072.66;;;15.05;100.00
498;BME280;39559;48.630;9.162;2022-07-10T01:46:51;98075.28;;;14.88;100.00
498;BME280;39559;48.630;9.162;2022-07-10T01:49:17;98070.91;;;14.88;100.00
498;BME280;39559;48.630;9.162;2022-07-10T01:51:42;98080.06;;;14.80;100.00
498;BME280;39559;48.630;9.162;2022-07-10T01:54:08;98075.22;;;14.72;100.00
498;BME280;39559;48.630;9.162;2022-07-10T01:56:34;98080.53;;;14.51;100.00
498;BME280;39559;48.630;9.162;2022-07-10T01:59:00;98078.53;;;14.39;100.00
498;BME280;39559;48.630;9.162;2022-07-10T02:01:28;98073.38;;;14.37;100.00
498;BME280;39559;48.630;9.162;2022-07-10T02:03:53;98073.59;;;14.33;100.00
498;BME280;39559;48.630;9.162;2022-07-10T02:06:37;98075.03;;;14.21;100.00
498;BME280;39559;48.630;9.162;2022-07-10T02:10:47;98073.31;;;14.02;100.00
498;BME280;39559;48.630;9.162;2022-07-10T02:13:13;98077.91;;;13.97;100.00
498;BME280;39559;48.630;9.162;2022-07-10T02:15:40;98077.03;;;13.97;100.00
498;BME280;39559;48.630;9.162;2022-07-10T02:18:07;98075.50;;;13.93;100.00
498;BME280;39559;48.630;9.162;2022-07-10T02:20:32;98074.25;;;13.82;100.00
498;BME280;39559;48.630;9.162;2022-07-10T02:22:59;98067.44;;;13.78;100.00
498;BME280;39559;48.630;9.162;2022-07-10T02:25:25;98072.31;;;13.67;100.00
498;BME280;39559;48.630;9.162;2022-07-10T02:27:50;98075.34;;;13.58;100.00
498;BME280;39559;48.630;9.162;2022-07-10T02:30:16;98077.44;;;13.50;100.00
498;BME280;39559;48.630;9.162;2022-07-10T02:34:42;98071.81;;;13.40;100.00
498;BME280;39559;48.630;9.162;2022-07-10T02:37:08;98082.47;;;13.35;100.00
498;BME280;39559;48.630;9.162;2022-07-10T02:39:33;98090.41;;;13.32;100.00
498;BME280;39559;48.630;9.162;2022-07-10T02:41:59;98092.88;;;13.35;100.00
498;BME280;39559;48.630;9.162;2022-07-10T02:44:24;98090.63;;;13.26;100.00
498;BME280;39559;48.630;9.162;2022-07-10T02:46:50;98092.38;;;13.46;100.00
498;BME280;39559;48.630;9.162;2022-07-10T02:49:15;98094.25;;;13.63;100.00
498;BME280;39559;48.630;9.162;2022-07-10T02:51:41;98094.41;;;13.79;100.00
498;BME280;39559;48.630;9.162;2022-07-10T02:54:06;98088.69;;;13.90;100.00
498;BME280;39559;48.630;9.162;2022-07-10T02:58:39;98096.66;;;13.87;100.00
498;BME280;39559;48.630;9.162;2022-07-10T03:01:39;98091.59;;;13.83;100.00
498;BME280;39559;48.630;9.162;2022-07-10T03:04:06;98093.84;;;13.91;100.00
498;BME280;39559;48.630;9.162;2022-07-10T03:06:33;98094.28;;;14.01;100.00
498;BME280;39559;48.630;9.162;2022-07-10T03:09:03;98088.69;;;14.09;100.00
498;BME280;39559;48.630;9.162;2022-07-10T03:11:29;98088.88;;;14.04;100.00
498;BME280;39559;48.630;9.162;2022-07-10T03:13:56;98084.53;;;14.05;100.00
498;BME280;39559;48.630;9.162;2022-07-10T03:18:48;98086.25;;;14.04;100.00
498;BME280;39559;48.630;9.162;2022-07-10T03:22:37;98089.81;;;14.03;100.00
498;BME280;39559;48.630;9.162;2022-07-10T03:25:03;98087.19;;;14.03;100.00
498;BME280;39559;48.630;9.162;2022-07-10T03:27:28;98086.13;;;14.07;100.00
498;BME280;39559;48.630;9.162;2022-07-10T03:29:54;98085.44;;;14.04;100.00
498;BME280;39559;48.630;9.162;2022-07-10T03:32:19;98085.22;;;14.08;100.00
498;BME280;39559;48.630;9.162;2022-07-10T03:34:45;98091.00;;;14.15;100.00
498;BME280;39559;48.630;9.162;2022-07-10T03:37:10;98090.78;;;14.19;100.00
498;BME280;39559;48.630;9.162;2022-07-10T03:39:36;98093.25;;;14.23;100.00
498;BME280;39559;48.630;9.162;2022-07-10T03:42:02;98093.97;;;14.26;100.00
498;BME280;39559;48.630;9.162;2022-07-10T03:46:33;98091.69;;;14.18;100.00
498;BME280;39559;48.630;9.162;2022-07-10T03:48:59;98096.00;;;14.19;100.00
498;BME280;39559;48.630;9.162;2022-07-10T03:51:25;98085.50;;;14.21;100.00
498;BME280;39559;48.630;9.162;2022-07-10T03:53:50;98085.75;;;14.15;100.00
498;BME280;39559;48.630;9.162;2022-07-10T03:56:16;98087.72;;;14.29;100.00
498;BME280;39559;48.630;9.162;2022-07-10T03:58:59;98085.78;;;13.96;100.00
498;BME280;39559;48.630;9.162;2022-07-10T04:01:25;98090.44;;;13.89;100.00
498;BME280;39559;48.630;9.162;2022-07-10T04:03:51;98088.78;;;13.88;100.00
498;BME280;39559;48.630;9.162;2022-07-10T04:06:16;98082.78;;;13.86;100.00
498;BME280;39559;48.630;9.162;2022-07-10T04:10:30;98081.84;;;13.87;100.00
498;BME280;39559;48.630;9.162;2022-07-10T04:12:57;98086.44;;;14.01;100.00
498;BME280;39559;48.630;9.162;2022-07-10T04:15:23;98086.06;;;14.09;100.00
498;BME280;39559;48.630;9.162;2022-07-10T04:17:49;98077.81;;;13.99;100.00
498;BME280;39559;48.630;9.162;2022-07-10T04:20:15;98080.63;;;13.94;100.00
498;BME280;39559;48.630;9.162;2022-07-10T04:22:41;98081.47;;;13.95;100.00
498;BME280;39559;48.630;9.162;2022-07-10T04:25:08;98082.53;;;13.91;100.00
498;BME280;39559;48.630;9.162;2022-07-10T04:27:34;98074.78;;;13.89;100.00
498;BME280;39559;48.630;9.162;2022-07-10T04:29:59;98083.06;;;13.99;100.00
498;BME280;39559;48.630;9.162;2022-07-10T04:34:24;98081.84;;;14.06;100.00
498;BME280;39559;48.630;9.162;2022-07-10T04:36:50;98088.38;;;14.15;100.00
498;BME280;39559;48.630;9.162;2022-07-10T04:39:16;98090.16;;;14.14;100.00
498;BME280;39559;48.630;9.162;2022-07-10T04:41:41;98095.31;;;14.16;100.00
498;BME280;39559;48.630;9.162;2022-07-10T04:44:07;98089.84;;;14.20;100.00
498;BME280;39559;48.630;9.162;2022-07-10T04:46:32;98092.56;;;14.19;100.00
498;BME280;39559;48.630;9.162;2022-07-10T04:48:58;98088.25;;;14.18;100.00
498;BME280;39559;48.630;9.162;2022-07-10T04:51:23;98093.97;;;14.07;100.00
498;BME280;39559;48.630;9.162;2022-07-10T04:53:49;98090.28;;;14.11;100.00
498;BME280;39559;48.630;9.162;2022-07-10T04:58:21;98090.00;;;14.17;100.00
498;BME280;39559;48.630;9.162;2022-07-10T05:00:47;98096.97;;;14.17;100.00
498;BME280;39559;48.630;9.162;2022-07-10T05:03:12;98096.34;;;14.31;100.00
498;BME280;39559;48.630;9.162;2022-07-10T05:05:38;98105.63;;;14.19;100.00
498;BME280;39559;48.630;9.162;2022-07-10T05:08:03;98103.16;;;14.16;100.00
498;BME280;39559;48.630;9.162;2022-07-10T05:10:30;98101.22;;;14.19;100.00
498;BME280;39559;48.630;9.162;2022-07-10T05:12:55;98108.56;;;14.30;100.00
498;BME280;39559;48.630;9.162;2022-07-10T05:15:21;98110.34;;;14.47;100.00
498;BME280;39559;48.630;9.162;2022-07-10T05:17:46;98114.03;;;14.43;100.00
498;BME280;39559;48.630;9.162;2022-07-10T05:22:20;98107.50;;;14.34;100.00
498;BME280;39559;48.630;9.162;2022-07-10T05:24:45;98111.28;;;14.46;100.00
498;BME280;39559;48.630;9.162;2022-07-10T05:27:11;98114.66;;;14.67;100.00
498;BME280;39559;48.630;9.162;2022-07-10T05:29:36;98119.41;;;14.76;100.00
498;BME280;39559;48.630;9.162;2022-07-10T05:32:02;98112.75;;;14.88;100.00
498;BME280;39559;48.630;9.162;2022-07-10T05:34:28;98112.44;;;14.94;100.00
498;BME280;39559;48.630;9.162;2022-07-10T05:36:53;98106.81;;;14.85;100.00
498;BME280;39559;48.630;9.162;2022-07-10T05:39:19;98110.91;;;14.90;100.00
498;BME280;39559;48.630;9.162;2022-07-10T05:41:45;98117.09;;;14.88;100.00
498;BME280;39559;48.630;9.162;2022-07-10T05:46:13;98117.50;;;14.44;100.00
498;BME280;39559;48.630;9.162;2022-07-10T05:48:38;98124.47;;;14.62;100.00
498;BME280;39559;48.630;9.162;2022-07-10T05:51:04;98132.03;;;14.49;100.00
498;BME280;39559;48.630;9.162;2022-07-10T05:53:29;98132.56;;;14.57;100.00
498;BME280;39559;48.630;9.162;2022-07-10T05:55:59;98136.13;;;14.74;100.00
498;BME280;39559;48.630;9.162;2022-07-10T05:58:25;98133.63;;;14.71;100.00
498;BME280;39559;48.630;9.162;2022-07-10T06:00:50;98132.41;;;14.78;100.00
498;BME280;39559;48.630;9.162;2022-07-10T06:03:16;98136.84;;;14.58;100.00
498;BME280;39559;48.630;9.162;2022-07-10T06:05:42;98141.78;;;14.65;100.00
498;BME280;39559;48.630;9.162;2022-07-10T06:10:12;98137.06;;;14.54;100.00
498;BME280;39559;48.630;9.162;2022-07-10T06:12:38;98144.09;;;14.71;100.00
498;BME280;39559;48.630;9.162;2022-07-10T06:15:04;98139.50;;;14.76;100.00
498;BME280;39559;48.630;9.162;2022-07-10T06:17:29;98143.00;;;14.75;100.00
498;BME280;39559;48.630;9.162;2022-07-10T06:19:55;98152.94;;;14.68;100.00
498;BME280;39559;48.630;9.162;2022-07-10T06:22:20;98147.22;;;14.60;100.00
498;BME280;39559;48.630;9.162;2022-07-10T06:25:00;98144.88;;;14.54;100.00
498;BME280;39559;48.630;9.162;2022-07-10T06:27:27;98146.50;;;14.56;100.00
498;BME280;39559;48.630;9.162;2022-07-10T06:29:53;98146.78;;;14.69;100.00
498;BME280;39559;48.630;9.162;2022-07-10T06:34:08;98151.56;;;14.78;100.00
498;BME280;39559;48.630;9.162;2022-07-10T06:36:34;98153.66;;;14.89;100.00
498;BME280;39559;48.630;9.162;2022-07-10T06:38:59;98163.03;;;14.93;100.00
498;BME280;39559;48.630;9.162;2022-07-10T06:41:25;98162.06;;;14.96;100.00
498;BME280;39559;48.630;9.162;2022-07-10T06:43:50;98161.03;;;14.98;100.00
498;BME280;39559;48.630;9.162;2022-07-10T06:46:16;98161.44;;;14.91;99.77
498;BME280;39559;48.630;9.162;2022-07-10T06:48:41;98161.03;;;14.98;100.00
498;BME280;39559;48.630;9.162;2022-07-10T06:51:08;98156.13;;;15.10;100.00
498;BME280;39559;48.630;9.162;2022-07-10T06:53:34;98163.03;;;14.93;100.00
498;BME280;39559;48.630;9.162;2022-07-10T06:58:05;98166.25;;;14.98;96.68
498;BME280;39559;48.630;9.162;2022-07-10T07:00:30;98162.28;;;15.09;98.49
498;BME280;39559;48.630;9.162;2022-07-10T07:02:56;98162.19;;;14.93;99.08
498;BME280;39559;48.630;9.162;2022-07-10T07:05:21;98172.66;;;14.93;98.94
498;BME280;39559;48.630;9.162;2022-07-10T07:07:47;98171.56;;;14.80;99.11
498;BME280;39559;48.630;9.162;2022-07-10T07:10:13;98171.72;;;14.76;99.58
498;BME280;39559;48.630;9.162;2022-07-10T07:12:38;98173.41;;;14.77;98.88
498;BME280;39559;48.630;9.162;2022-07-10T07:15:05;98188.16;;;14.78;99.52
498;BME280;39559;48.630;9.162;2022-07-10T07:17:31;98179.34;;;14.81;100.00
498;BME280;39559;48.630;9.162;2022-07-10T07:22:01;98177.34;;;14.86;100.00
498;BME280;39559;48.630;9.162;2022-07-10T07:24:45;98188.69;;;14.68;100.00
498;BME280;39559;48.630;9.162;2022-07-10T07:27:11;98182.59;;;14.86;98.11
498;BME280;39559;48.630;9.162;2022-07-10T07:29:37;98194.53;;;14.73;100.00
498;BME280;39559;48.630;9.162;2022-07-10T07:32:03;98184.75;;;14.59;99.60
498;BME280;39559;48.630;9.162;2022-07-10T07:34:29;98183.91;;;14.58;97.67
498;BME280;39559;48.630;9.162;2022-07-10T07:36:57;98193.03;;;14.86;91.58
498;BME280;39559;48.630;9.162;2022-07-10T07:39:22;98194.00;;;14.66;97.29
498;BME280;39559;48.630;9.162;2022-07-10T07:41:49;98193.22;;;14.64;99.83
498;BME280;39559;48.630;9.162;2022-07-10T07:45:59;98186.66;;;14.92;100.00
498;BME280;39559;48.630;9.162;2022-07-10T07:48:25;98185.41;;;14.82;100.00
498;BME280;39559;48.630;9.162;2022-07-10T07:50:50;98189.88;;;14.97;98.02
498;BME280;39559;48.630;9.162;2022-07-10T07:53:16;98184.13;;;15.25;100.00
498;BME280;39559;48.630;9.162;2022-07-10T07:55:41;98178.50;;;15.33;95.10
498;BME280;39559;48.630;9.162;2022-07-10T07:58:07;98175.50;;;15.41;95.73
498;BME280;39559;48.630;9.162;2022-07-10T08:00:33;98180.91;;;15.38;96.13
498;BME280;39559;48.630;9.162;2022-07-10T08:02:59;98172.81;;;15.42;94.20
498;BME280;39559;48.630;9.162;2022-07-10T08:05:26;98175.28;;;15.45;93.77
498;BME280;39559;48.630;9.162;2022-07-10T08:09:54;98176.28;;;15.43;94.31
498;BME280;39559;48.630;9.162;2022-07-10T08:12:20;98171.38;;;15.19;98.63
498;BME280;39559;48.630;9.162;2022-07-10T08:14:45;98178.28;;;15.38;98.67
498;BME280;39559;48.630;9.162;2022-07-10T08:17:11;98177.50;;;15.53;91.54
498;BME280;39559;48.630;9.162;2022-07-10T08:19:37;98172.38;;;15.34;94.12
498;BME280;39559;48.630;9.162;2022-07-10T08:22:02;98177.50;;;15.18;90.76
498;BME280;39559;48.630;9.162;2022-07-10T08:24:28;98176.75;;;15.33;89.92
498;BME280;39559;48.630;9.162;2022-07-10T08:26:54;98168.59;;;15.40;89.44
498;BME280;39559;48.630;9.162;2022-07-10T08:29:20;98171.88;;;15.26;90.33
498;BME280;39559;48.630;9.162;2022-07-10T08:33:48;98167.69;;;15.57;91.83
498;BME280;39559;48.630;9.162;2022-07-10T08:36:16;98157.16;;;15.76;86.48
498;BME280;39559;48.630;9.162;2022-07-10T08:38:41;98168.94;;;15.67;86.69
498;BME280;39559;48.630;9.162;2022-07-10T08:41:09;98170.94;;;15.62;87.85
498;BME280;39559;48.630;9.162;2022-07-10T08:43:36;98161.97;;;15.66;88.07
498;BME280;39559;48.630;9.162;2022-07-10T08:46:02;98161.28;;;15.62;87.51
498;BME280;39559;48.630;9.162;2022-07-10T08:48:31;98156.81;;;15.82;86.41
498;BME280;39559;48.630;9.162;2022-07-10T08:51:04;98157.81;;;15.28;92.21
498;BME280;39559;48.630;9.162;2022-07-10T08:53:32;98151.81;;;15.26;89.57
498;BME280;39559;48.630;9.162;2022-07-10T08:57:48;98142.81;;;15.83;86.32
498;BME280;39559;48.630;9.162;2022-07-10T09:00:15;98149.69;;;16.01;79.79
498;BME280;39559;48.630;9.162;2022-07-10T09:02:42;98145.81;;;15.75;80.31
498;BME280;39559;48.630;9.162;2022-07-10T09:05:08;98147.50;;;15.43;85.83
498;BME280;39559;48.630;9.162;2022-07-10T09:07:37;98158.03;;;15.41;85.49
498;BME280;39559;48.630;9.162;2022-07-10T09:10:10;98146.94;;;15.87;88.31
498;BME280;39559;48.630;9.162;2022-07-10T09:12:53;98151.13;;;16.39;85.04
498;BME280;39559;48.630;9.162;2022-07-10T09:15:21;98150.50;;;16.49;75.68
498;BME280;39559;48.630;9.162;2022-07-10T09:17:59;98154.84;;;16.03;75.44
498;BME280;39559;48.630;9.162;2022-07-10T09:21:45;98160.34;;;15.81;85.45
498;BME280;39559;48.630;9.162;2022-07-10T09:24:11;98167.88;;;15.53;83.21
498;BME280;39559;48.630;9.162;2022-07-10T09:26:37;98166.75;;;15.75;83.96
498;BME280;39559;48.630;9.162;2022-07-10T09:29:07;98165.31;;;16.19;85.41
498;BME280;39559;48.630;9.162;2022-07-10T09:31:52;98160.81;;;16.84;79.16
498;BME280;39559;48.630;9.162;2022-07-10T09:34:34;98172.47;;;17.25;74.46
498;BME280;39559;48.630;9.162;2022-07-10T09:37:27;98173.19;;;17.43;77.35
498;BME280;39559;48.630;9.162;2022-07-10T09:42:35;98173.28;;;16.49;75.93
498;BME280;39559;48.630;9.162;2022-07-10T09:45:40;98163.63;;;16.49;77.83
498;BME280;39559;48.630;9.162;2022-07-10T09:48:05;98163.06;;;17.06;74.75
498;BME280;39559;48.630;9.162;2022-07-10T09:50:35;98157.44;;;17.13;72.76
498;BME280;39559;48.630;9.162;2022-07-10T09:53:08;98156.94;;;16.60;73.81
498;BME280;39559;48.630;9.162;2022-07-10T09:55:37;98157.88;;;16.11;70.75
498;BME280;39559;48.630;9.162;2022-07-10T09:58:08;98155.31;;;15.78;73.91
498;BME280;39559;48.630;9.162;2022-07-10T10:00:38;98160.31;;;16.62;87.26
498;BME280;39559;48.630;9.162;2022-07-10T10:03:06;98152.44;;;16.94;73.95
498;BME280;39559;48.630;9.162;2022-07-10T10:09:41;98152.16;;;16.82;71.71
498;BME280;39559;48.630;9.162;2022-07-10T10:12:21;98164.13;;;16.24;75.69
498;BME280;39559;48.630;9.162;2022-07-10T10:14:50;98172.22;;;16.04;75.34
498;BME280;39559;48.630;9.162;2022-07-10T10:17:19;98157.78;;;16.12;77.17
498;BME280;39559;48.630;9.162;2022-07-10T10:19:45;98159.13;;;16.51;74.64
498;BME280;39559;48.630;9.162;2022-07-10T10:22:30;98160.63;;;16.72;70.10
498;BME280;39559;48.630;9.162;2022-07-10T10:24:58;98155.97;;;16.77;73.00
498;BME280;39559;48.630;9.162;2022-07-10T10:27:25;98158.13;;;16.70;73.18
498;BME280;39559;48.630;9.162;2022-07-10T10:29:51;98156.03;;;16.45;71.75
498;BME280;39559;48.630;9.162;2022-07-10T10:35:57;98160.75;;;16.38;71.40
498;BME280;39559;48.630;9.162;2022-07-10T10:38:23;98160.00;;;16.36;72.44
498;BME280;39559;48.630;9.162;2022-07-10T10:40:48;98147.44;;;16.73;75.23
498;BME280;39559;48.630;9.162;2022-07-10T10:43:19;98142.28;;;17.18;69.38
498;BME280;39559;48.630;9.162;2022-07-10T10:45:46;98142.94;;;17.21;69.78
498;BME280;39559;48.630;9.162;2022-07-10T10:48:18;98134.06;;;17.53;68.58
498;BME280;39559;48.630;9.162;2022-07-10T10:50:51;98132.94;;;17.57;65.74
498;BME280;39559;48.630;9.162;2022-07-10T10:53:24;98120.38;;;17.48;67.21
498;BME280;39559;48.630;9.162;2022-07-10T10:59:57;98130.31;;;16.98;69.17
498;BME280;39559;48.630;9.162;2022-07-10T11:02:34;98130.94;;;16.71;72.38
498;BME280;39559;48.630;9.162;2022-07-10T11:12:59;98128.53;;;17.72;68.01
498;BME280;39559;48.630;9.162;2022-07-10T11:15:26;98129.47;;;17.56;65.41
498;BME280;39559;48.630;9.162;2022-07-10T11:18:17;98137.50;;;17.39;66.23
498;BME280;39559;48.630;9.162;2022-07-10T11:21:25;98134.63;;;16.99;71.85
498;BME280;39559;48.630;9.162;2022-07-10T11:24:03;98129.06;;;16.89;73.55
498;BME280;39559;48.630;9.162;2022-07-10T11:26:36;98137.00;;;17.03;70.57
498;BME280;39559;48.630;9.162;2022-07-10T11:29:06;98124.22;;;17.42;63.73
498;BME280;39559;48.630;9.162;2022-07-10T11:31:32;98118.44;;;17.94;65.96
498;BME280;39559;48.630;9.162;2022-07-10T11:34:10;98114.53;;;18.14;65.23
498;BME280;39559;48.630;9.162;2022-07-10T11:36:39;98119.47;;;18.33;61.17
498;BME280;39559;48.630;9.162;2022-07-10T11:39:06;98123.88;;;17.91;62.75
498;BME280;39559;48.630;9.162;2022-07-10T11:41:33;98117.09;;;17.58;63.68
498;BME280;39559;48.630;9.162;2022-07-10T11:47:48;98115.91;;;18.34;70.42
498;BME280;39559;48.630;9.162;2022-07-10T11:50:14;98109.31;;;18.69;61.75
498;BME280;39559;48.630;9.162;2022-07-10T11:52:40;98105.44;;;18.47;62.31
498;BME280;39559;48.630;9.162;2022-07-10T11:55:16;98110.44;;;18.92;65.84
498;BME280;39559;48.630;9.162;2022-07-10T11:57:42;98109.28;;;18.96;67.71
498;BME280;39559;48.630;9.162;2022-07-10T12:02:55;98118.03;;;19.09;68.90
498;BME280;39559;48.630;9.162;2022-07-10T12:05:38;98106.34;;;19.26;57.01
498;BME280;39559;48.630;9.162;2022-07-10T12:09:16;98108.56;;;19.71;63.87
498;BME280;39559;48.630;9.162;2022-07-10T12:11:44;98101.75;;;19.55;56.51
498;BME280;39559;48.630;9.162;2022-07-10T12:14:17;98107.13;;;19.80;58.08
498;BME280;39559;48.630;9.162;2022-07-10T12:16:45;98097.31;;;19.43;56.42
498;BME280;39559;48.630;9.162;2022-07-10T12:19:14;98105.94;;;19.20;56.37
498;BME280;39559;48.630;9.162;2022-07-10T12:21:42;98102.66;;;19.67;61.99
498;BME280;39559;48.630;9.162;2022-07-10T12:24:08;98101.91;;;20.04;60.56
498;BME280;39559;48.630;9.162;2022-07-10T12:26:35;98105.50;;;19.64;59.94
498;BME280;39559;48.630;9.162;2022-07-10T12:29:02;98104.38;;;19.81;57.96
498;BME280;39559;48.630;9.162;2022-07-10T12:33:11;98099.78;;;20.33;64.15
498;BME280;39559;48.630;9.162;2022-07-10T12:35:56;98111.94;;;18.96;58.64
498;BME280;39559;48.630;9.162;2022-07-10T12:40:49;98101.75;;;19.55;54.08
498;BME280;39559;48.630;9.162;2022-07-10T12:43:26;98103.63;;;19.28;54.61
498;BME280;39559;48.630;9.162;2022-07-10T12:46:27;98106.69;;;19.34;60.19
498;BME280;39559;48.630;9.162;2022-07-10T12:49:07;98111.66;;;19.65;59.24
498;BME280;39559;48.630;9.162;2022-07-10T12:51:34;98109.63;;;19.94;63.19
498;BME280;39559;48.630;9.162;2022-07-10T12:54:00;98108.88;;;20.05;54.42
498;BME280;39559;48.630;9.162;2022-07-10T12:57:06;98110.22;;;20.10;50.28
498;BME280;39559;48.630;9.162;2022-07-10T12:59:33;98104.25;;;19.96;57.70
498;BME280;39559;48.630;9.162;2022-07-10T13:02:22;98100.56;;;19.60;52.90
498;BME280;39559;48.630;9.162;2022-07-10T13:04:55;98103.88;;;20.13;54.70
498;BME280;39559;48.630;9.162;2022-07-10T13:07:29;98098.22;;;20.55;54.36
498;BME280;39559;48.630;9.162;2022-07-10T13:09:55;98112.44;;;20.04;51.77
498;BME280;39559;48.630;9.162;2022-07-10T13:12:20;98109.22;;;19.74;49.97
498;BME280;39559;48.630;9.162;2022-07-10T13:14:46;98117.25;;;19.73;58.25
498;BME280;39559;48.630;9.162;2022-07-10T13:17:12;98106.84;;;20.08;48.32
498;BME280;39559;48.630;9.162;2022-07-10T13:20:59;98105.41;;;19.66;52.82
498;BME280;39559;48.630;9.162;2022-07-10T13:23:27;98106.88;;;19.70;51.89
498;BME280;39559;48.630;9.162;2022-07-10T13:25:53;98105.88;;;20.09;50.00
498;BME280;39559;48.630;9.162;2022-07-10T13:28:19;98108.09;;;20.03;46.96
498;BME280;39559;48.630;9.162;2022-07-10T13:30:45;98107.97;;;20.17;46.81
498;BME280;39559;48.630;9.162;2022-07-10T13:33:11;98110.19;;;20.23;47.81
498;BME280;39559;48.630;9.162;2022-07-10T13:35:37;98112.53;;;20.02;50.57
498;BME280;39559;48.630;9.162;2022-07-10T13:38:03;98109.31;;;20.36;53.90
498;BME280;39559;48.630;9.162;2022-07-10T13:40:34;98113.94;;;20.56;51.82
498;BME280;39559;48.630;9.162;2022-07-10T13:44:52;98107.06;;;20.66;47.42
498;BME280;39559;48.630;9.162;2022-07-10T13:47:17;98104.94;;;20.10;49.93
498;BME280;39559;48.630;9.162;2022-07-10T13:49:43;98104.81;;;20.49;51.80
498;BME280;39559;48.630;9.162;2022-07-10T13:52:09;98102.84;;;20.64;50.99
498;BME280;39559;48.630;9.162;2022-07-10T13:54:34;98108.22;;;20.14;48.99
498;BME280;39559;48.630;9.162;2022-07-10T13:57:00;98104.47;;;19.92;47.48
498;BME280;39559;48.630;9.162;2022-07-10T13:59:27;98091.38;;;20.28;50.03
498;BME280;39559;48.630;9.162;2022-07-10T14:01:52;98098.75;;;20.36;50.22
498;BME280;39559;48.630;9.162;2022-07-10T14:04:18;98110.44;;;20.07;48.45
498;BME280;39559;48.630;9.162;2022-07-10T14:08:48;98094.66;;;19.82;48.84
498;BME280;39559;48.630;9.162;2022-07-10T14:11:14;98094.91;;;20.16;47.29
498;BME280;39559;48.630;9.162;2022-07-10T14:13:40;98110.59;;;20.17;48.88
498;BME280;39559;48.630;9.162;2022-07-10T14:16:06;98103.94;;;19.87;50.71
498;BME280;39559;48.630;9.162;2022-07-10T14:18:31;98101.31;;;19.87;49.94
498;BME280;39559;48.630;9.162;2022-07-10T14:21:06;98094.06;;;19.52;51.36
498;BME280;39559;48.630;9.162;2022-07-10T14:23:37;98098.78;;;19.73;51.32
498;BME280;39559;48.630;9.162;2022-07-10T14:26:05;98092.88;;;19.82;50.41
498;BME280;39559;48.630;9.162;2022-07-10T14:28:31;98098.69;;;19.49;50.09
498;BME280;39559;48.630;9.162;2022-07-10T14:32:42;98100.88;;;19.68;50.57
498;BME280;39559;48.630;9.162;2022-07-10T14:35:08;98109.50;;;19.70;51.43
498;BME280;39559;48.630;9.162;2022-07-10T14:37:34;98104.78;;;19.75;51.74
498;BME280;39559;48.630;9.162;2022-07-10T14:40:00;98106.38;;;19.65;51.17
498;BME280;39559;48.630;9.162;2022-07-10T14:42:25;98111.53;;;19.53;54.33
498;BME280;39559;48.630;9.162;2022-07-10T14:44:51;98114.50;;;19.36;53.32
498;BME280;39559;48.630;9.162;2022-07-10T14:47:16;98113.75;;;19.34;53.25
498;BME280;39559;48.630;9.162;2022-07-10T14:49:42;98114.06;;;19.29;54.76
498;BME280;39559;48.630;9.162;2022-07-10T14:52:07;98110.22;;;18.95;52.53